createdAt,value
2016-03-16T00:00:58.106Z,90.63
2016-03-16T00:01:58.062Z,90.72
2016-03-16T00:02:58.034Z,90.72
2016-03-16T00:03:57.989Z,91
2016-03-16T00:04:57.961Z,91.76
2016-03-16T00:05:57.916Z,92.43
2016-03-16T00:06:57.903Z,92.24
2016-03-16T00:07:57.858Z,91.76
2016-03-16T00:08:57.830Z,92.14
2016-03-16T00:09:57.802Z,92.33
2016-03-16T00:10:57.758Z,92.71
2016-03-16T00:11:57.730Z,92.61
2016-03-16T00:12:57.685Z,92.57
2016-03-16T00:13:57.657Z,92.47
2016-03-16T00:14:57.628Z,93.04
2016-03-16T00:15:57.585Z,93.51
2016-03-16T00:16:57.571Z,93.7
2016-03-16T00:17:57.527Z,93.89
2016-03-16T00:18:57.482Z,93.8
2016-03-16T00:19:57.445Z,93.89
2016-03-16T00:20:57.389Z,93.99
2016-03-16T00:21:57.363Z,94.65
2016-03-16T00:22:57.323Z,94.84
2016-03-16T00:23:57.267Z,94.46
2016-03-16T00:24:57.233Z,94.84
2016-03-16T00:25:57.184Z,93.89
2016-03-16T00:26:57.152Z,94.08
2016-03-16T00:27:57.103Z,93.61
2016-03-16T00:28:57.055Z,93.99
2016-03-16T00:29:57.024Z,93.89
2016-03-16T00:30:56.998Z,94.84
2016-03-16T00:31:56.952Z,94.46
2016-03-16T00:32:56.907Z,94.56
2016-03-16T00:33:56.907Z,94.27
2016-03-16T00:34:56.847Z,94.93
2016-03-16T00:35:56.834Z,94.46
2016-03-16T00:36:56.774Z,94.37
2016-03-16T00:37:56.761Z,94.56
2016-03-16T00:38:56.716Z,94.46
2016-03-16T00:39:56.686Z,94.56
2016-03-16T00:40:56.643Z,94.56
2016-03-16T00:41:56.613Z,94.56
2016-03-16T00:42:56.600Z,94.46
2016-03-16T00:43:56.556Z,94.56
2016-03-16T00:44:56.495Z,94.56
2016-03-16T00:45:56.467Z,94.46
2016-03-16T00:46:56.438Z,94.46
2016-03-16T00:47:56.410Z,94.65
2016-03-16T00:48:56.366Z,93.89
2016-03-16T00:49:56.337Z,94.84
2016-03-16T00:50:56.308Z,93.7
2016-03-16T00:51:56.264Z,93.89
2016-03-16T00:52:56.236Z,93.89
2016-03-16T00:53:56.191Z,93.8
2016-03-16T00:54:56.163Z,94.37
2016-03-16T00:55:56.135Z,94.37
2016-03-16T00:56:56.105Z,94.56
2016-03-16T00:57:56.077Z,94.56
2016-03-16T00:58:56.034Z,93.8
2016-03-16T00:59:56.005Z,93.89
2016-03-16T01:00:55.961Z,93.99
2016-03-16T01:01:55.916Z,94.65
2016-03-16T01:02:55.904Z,94.74
2016-03-16T01:03:55.875Z,94.37
2016-03-16T01:04:55.832Z,94.56
2016-03-16T01:05:55.787Z,94.56
2016-03-16T01:06:55.743Z,94.37
2016-03-16T01:07:55.717Z,94.56
2016-03-16T01:08:55.674Z,94.56
2016-03-16T01:09:55.660Z,93.8
2016-03-16T01:10:55.615Z,94.08
2016-03-16T01:11:55.587Z,94.46
2016-03-16T01:12:55.543Z,94.84
2016-03-16T01:13:55.503Z,93.99
2016-03-16T01:14:55.490Z,93.89
2016-03-16T01:15:55.446Z,93.8
2016-03-16T01:16:55.417Z,93.89
2016-03-16T01:17:55.374Z,94.08
2016-03-16T01:18:55.345Z,94.93
2016-03-16T01:19:55.301Z,94.56
2016-03-16T01:20:55.272Z,94.42
2016-03-16T01:21:55.245Z,94.27
2016-03-16T01:22:55.200Z,94.42
2016-03-16T01:23:55.187Z,94.37
2016-03-16T01:24:55.128Z,94.46
2016-03-16T01:25:55.098Z,94.56
2016-03-16T01:26:55.055Z,94.65
2016-03-16T01:27:55.026Z,94.93
2016-03-16T01:28:54.997Z,94.93
2016-03-16T01:29:54.953Z,94.56
2016-03-16T01:30:54.924Z,93.99
2016-03-16T01:31:54.880Z,93.8
2016-03-16T01:32:54.867Z,94.08
2016-03-16T01:33:54.839Z,94.18
2016-03-16T01:34:54.794Z,93.32
2016-03-16T01:35:54.750Z,93.7
2016-03-16T01:36:54.722Z,93.32
2016-03-16T01:37:54.678Z,93.61
2016-03-16T01:38:54.649Z,92.57
2016-03-16T01:39:54.605Z,92.94
2016-03-16T01:40:54.577Z,92.76
2016-03-16T01:41:54.548Z,92
2016-03-16T01:42:54.504Z,92.19
2016-03-16T01:43:54.475Z,92.29
2016-03-16T01:44:54.446Z,91.34
2016-03-16T01:45:54.402Z,91.62
2016-03-16T01:46:54.373Z,92
2016-03-16T01:47:54.345Z,91.81
2016-03-16T01:48:54.301Z,91.62
2016-03-16T01:49:54.273Z,91.43
2016-03-16T01:50:54.244Z,90.96
2016-03-16T01:51:54.200Z,90.86
2016-03-16T01:52:54.171Z,90.77
2016-03-16T01:53:54.143Z,90.58
2016-03-16T01:54:54.098Z,90.58
2016-03-16T01:55:54.070Z,90.58
2016-03-16T01:56:54.026Z,90.34
2016-03-16T01:57:53.998Z,90.2
2016-03-16T01:58:53.953Z,90.3
2016-03-16T01:59:53.925Z,90.06
2016-03-16T02:00:53.897Z,90.25
2016-03-16T02:01:53.852Z,89.87
2016-03-16T02:02:53.839Z,89.87
2016-03-16T02:03:53.811Z,89.39
2016-03-16T02:04:53.766Z,89.2
2016-03-16T02:05:53.722Z,89.68
2016-03-16T02:06:53.693Z,89.49
2016-03-16T02:07:53.648Z,88.82
2016-03-16T02:08:53.620Z,89.3
2016-03-16T02:09:53.623Z,88.82
2016-03-16T02:10:53.547Z,88.54
2016-03-16T02:11:53.534Z,88.54
2016-03-16T02:12:53.490Z,88.45
2016-03-16T02:13:53.462Z,88.45
2016-03-16T02:14:53.433Z,88.64
2016-03-16T02:15:53.403Z,87.98
2016-03-16T02:16:53.361Z,87.88
2016-03-16T02:17:53.316Z,88.54
2016-03-16T02:18:53.303Z,88.64
2016-03-16T02:19:53.243Z,87.78
2016-03-16T02:20:53.216Z,88.26
2016-03-16T02:21:53.187Z,88.26
2016-03-16T02:22:53.159Z,87.98
2016-03-16T02:23:53.114Z,87.98
2016-03-16T02:24:53.086Z,88.54
2016-03-16T02:25:53.042Z,88.26
2016-03-16T02:26:53.012Z,87.69
2016-03-16T02:27:52.984Z,87.59
2016-03-16T02:28:52.939Z,88.07
2016-03-16T02:29:52.912Z,87.78
2016-03-16T02:30:52.883Z,87.78
2016-03-16T02:31:52.855Z,88.17
2016-03-16T02:32:52.811Z,88.07
2016-03-16T02:33:52.781Z,87.69
2016-03-16T02:34:52.753Z,87.69
2016-03-16T02:35:52.725Z,88.07
2016-03-16T02:36:52.681Z,87.98
2016-03-16T02:37:52.652Z,87.78
2016-03-16T02:38:52.608Z,87.88
2016-03-16T02:39:52.594Z,87.59
2016-03-16T02:40:52.535Z,88.07
2016-03-16T02:41:52.507Z,87.78
2016-03-16T02:42:52.478Z,87.5
2016-03-16T02:43:52.433Z,87.59
2016-03-16T02:44:52.421Z,87.12
2016-03-16T02:45:52.376Z,87.5
2016-03-16T02:46:52.363Z,87.31
2016-03-16T02:47:52.303Z,87.02
2016-03-16T02:48:52.276Z,87.12
2016-03-16T02:49:52.246Z,87.02
2016-03-16T02:50:52.202Z,86.83
2016-03-16T02:51:52.158Z,86.93
2016-03-16T02:52:52.145Z,86.83
2016-03-16T02:53:52.101Z,87.02
2016-03-16T02:54:52.073Z,86.74
2016-03-16T02:55:52.029Z,86.93
2016-03-16T02:56:52.000Z,87.02
2016-03-16T02:57:51.971Z,86.93
2016-03-16T02:58:51.942Z,86.93
2016-03-16T02:59:51.898Z,87.02
2016-03-16T03:00:51.870Z,86.83
2016-03-16T03:01:51.873Z,86.55
2016-03-16T03:02:51.797Z,86.93
2016-03-16T03:03:51.783Z,86.93
2016-03-16T03:04:51.724Z,86.93
2016-03-16T03:05:51.696Z,87.02
2016-03-16T03:06:51.667Z,87.02
2016-03-16T03:07:51.622Z,87.02
2016-03-16T03:08:51.610Z,86.93
2016-03-16T03:09:51.566Z,86.83
2016-03-16T03:10:51.538Z,86.93
2016-03-16T03:11:51.493Z,86.93
2016-03-16T03:12:51.465Z,86.93
2016-03-16T03:13:51.421Z,87.12
2016-03-16T03:14:51.408Z,86.83
2016-03-16T03:15:51.363Z,86.83
2016-03-16T03:16:51.334Z,86.83
2016-03-16T03:17:51.291Z,87.02
2016-03-16T03:18:51.262Z,86.55
2016-03-16T03:19:51.218Z,86.83
2016-03-16T03:20:51.205Z,87.12
2016-03-16T03:21:51.160Z,87.12
2016-03-16T03:22:51.117Z,87.02
2016-03-16T03:23:51.104Z,86.93
2016-03-16T03:24:51.059Z,87.02
2016-03-16T03:25:51.031Z,86.74
2016-03-16T03:26:51.003Z,86.65
2016-03-16T03:27:50.958Z,87.02
2016-03-16T03:28:50.914Z,87.12
2016-03-16T03:29:50.886Z,86.83
2016-03-16T03:30:50.857Z,86.65
2016-03-16T03:31:50.828Z,87.02
2016-03-16T03:32:50.784Z,86.93
2016-03-16T03:33:50.756Z,86.74
2016-03-16T03:34:50.728Z,86.65
2016-03-16T03:35:50.698Z,86.83
2016-03-16T03:36:50.654Z,86.55
2016-03-16T03:37:50.626Z,86.65
2016-03-16T03:38:50.581Z,86.27
2016-03-16T03:39:50.552Z,86.36
2016-03-16T03:40:50.508Z,86.55
2016-03-16T03:41:50.480Z,86.55
2016-03-16T03:42:50.452Z,86.27
2016-03-16T03:43:50.423Z,86.27
2016-03-16T03:44:50.394Z,86.65
2016-03-16T03:45:50.350Z,86.46
2016-03-16T03:46:50.322Z,86.46
2016-03-16T03:47:50.293Z,86.46
2016-03-16T03:48:50.249Z,86.08
2016-03-16T03:49:50.221Z,86.65
2016-03-16T03:50:50.176Z,86.41
2016-03-16T03:51:50.148Z,85.89
2016-03-16T03:52:50.118Z,86.31
2016-03-16T03:53:50.075Z,85.7
2016-03-16T03:54:50.045Z,85.51
2016-03-16T03:55:50.017Z,85.46
2016-03-16T03:56:49.973Z,85.7
2016-03-16T03:57:49.945Z,85.61
2016-03-16T03:58:49.901Z,84.89
2016-03-16T03:59:49.872Z,84.61
2016-03-16T04:00:49.844Z,85.17
2016-03-16T04:01:49.815Z,84.99
2016-03-16T04:03:30.318Z,85.27
2016-03-16T04:03:49.742Z,85.08
2016-03-16T04:04:49.713Z,85.08
2016-03-16T04:05:49.669Z,85.08
2016-03-16T04:06:49.641Z,84.99
2016-03-16T04:07:49.612Z,85.08
2016-03-16T04:08:49.568Z,84.89
2016-03-16T04:09:49.555Z,84.8
2016-03-16T04:10:49.511Z,84.51
2016-03-16T04:11:49.483Z,84.8
2016-03-16T04:12:49.438Z,84.51
2016-03-16T04:13:49.410Z,85.08
2016-03-16T04:14:49.381Z,84.8
2016-03-16T04:15:49.337Z,85.08
2016-03-16T04:16:49.308Z,84.89
2016-03-16T04:17:49.264Z,84.04
2016-03-16T04:18:49.235Z,84.23
2016-03-16T04:19:49.207Z,84.13
2016-03-16T04:20:49.179Z,84.7
2016-03-16T04:21:49.150Z,84.7
2016-03-16T04:22:49.107Z,84.42
2016-03-16T04:23:49.077Z,84.7
2016-03-16T04:24:49.033Z,84.8
2016-03-16T04:25:49.020Z,84.04
2016-03-16T04:26:48.976Z,84.89
2016-03-16T04:27:48.948Z,84.04
2016-03-16T04:28:48.903Z,84.13
2016-03-16T04:29:48.875Z,83.85
2016-03-16T04:30:48.831Z,84.32
2016-03-16T04:31:48.803Z,84.04
2016-03-16T04:32:48.773Z,84.23
2016-03-16T04:33:48.745Z,84.13
2016-03-16T04:34:48.717Z,83.56
2016-03-16T04:35:48.672Z,83.85
2016-03-16T04:36:48.644Z,83.85
2016-03-16T04:37:48.599Z,84.23
2016-03-16T04:38:48.572Z,83.75
2016-03-16T04:39:48.542Z,83.47
2016-03-16T04:40:48.498Z,83.66
2016-03-16T04:41:48.469Z,83.47
2016-03-16T04:42:48.441Z,83.94
2016-03-16T04:43:48.413Z,83.94
2016-03-16T04:44:48.369Z,83.85
2016-03-16T04:45:48.340Z,84.04
2016-03-16T04:46:48.311Z,83.28
2016-03-16T04:47:48.298Z,83.75
2016-03-16T04:48:48.238Z,83.94
2016-03-16T04:49:48.194Z,83.56
2016-03-16T04:50:48.166Z,83.28
2016-03-16T04:51:48.137Z,83.47
2016-03-16T04:52:48.109Z,83.94
2016-03-16T04:53:48.064Z,83.85
2016-03-16T04:54:48.035Z,84.04
2016-03-16T04:55:48.007Z,83.94
2016-03-16T04:56:47.963Z,84.04
2016-03-16T04:57:47.934Z,84.23
2016-03-16T04:58:47.750Z,83.75
2016-03-16T04:59:47.862Z,83.56
2016-03-16T05:00:47.833Z,83.85
2016-03-16T05:01:47.804Z,83.66
2016-03-16T05:02:47.776Z,84.04
2016-03-16T05:03:47.732Z,83.66
2016-03-16T05:04:47.719Z,84.04
2016-03-16T05:05:47.675Z,83.28
2016-03-16T05:06:47.683Z,83.28
2016-03-16T05:07:47.608Z,84.04
2016-03-16T05:08:47.564Z,83.66
2016-03-16T05:09:47.535Z,84.04
2016-03-16T05:10:47.506Z,83.66
2016-03-16T05:11:47.462Z,84.04
2016-03-16T05:12:47.433Z,84.42
2016-03-16T05:13:47.249Z,84.32
2016-03-16T05:14:47.361Z,84.04
2016-03-16T05:15:47.348Z,83.56
2016-03-16T05:16:47.304Z,84.04
2016-03-16T05:17:47.260Z,83.28
2016-03-16T05:18:47.231Z,83.28
2016-03-16T05:19:47.202Z,83.28
2016-03-16T05:20:47.174Z,83.28
2016-03-16T05:21:47.130Z,83.66
2016-03-16T05:22:47.116Z,83.85
2016-03-16T05:23:47.057Z,83.75
2016-03-16T05:24:47.044Z,83.18
2016-03-16T05:25:47.000Z,83.66
2016-03-16T05:26:46.972Z,83.56
2016-03-16T05:27:46.927Z,83.85
2016-03-16T05:28:46.915Z,83.18
2016-03-16T05:29:46.713Z,84.23
2016-03-16T05:30:46.841Z,84.23
2016-03-16T05:31:46.798Z,84.23
2016-03-16T05:32:46.768Z,83.66
2016-03-16T05:33:46.724Z,84.32
2016-03-16T05:34:46.696Z,83.47
2016-03-16T05:35:46.667Z,83.66
2016-03-16T05:36:46.623Z,83.56
2016-03-16T05:37:46.610Z,83.85
2016-03-16T05:38:46.567Z,83.66
2016-03-16T05:39:46.538Z,83.56
2016-03-16T05:40:46.509Z,83.56
2016-03-16T05:41:46.465Z,84.04
2016-03-16T05:42:46.420Z,83.09
2016-03-16T05:43:46.392Z,83.28
2016-03-16T05:44:46.364Z,84.13
2016-03-16T05:45:46.335Z,83.56
2016-03-16T05:46:46.291Z,83.66
2016-03-16T05:47:46.277Z,83.56
2016-03-16T05:48:46.233Z,84.13
2016-03-16T05:49:46.205Z,84.13
2016-03-16T05:50:46.161Z,83.94
2016-03-16T05:51:46.133Z,83.66
2016-03-16T05:52:46.104Z,84.13
2016-03-16T05:53:46.075Z,84.13
2016-03-16T05:54:46.030Z,83.66
2016-03-16T05:55:46.002Z,83.85
2016-03-16T05:56:45.958Z,83.66
2016-03-16T05:57:45.930Z,84.23
2016-03-16T05:58:45.902Z,83.66
2016-03-16T05:59:45.858Z,83.85
2016-03-16T06:00:45.829Z,83.47
2016-03-16T06:01:45.800Z,83.37
2016-03-16T06:02:45.772Z,83.18
2016-03-16T06:03:45.727Z,83.18
2016-03-16T06:04:45.699Z,83.18
2016-03-16T06:05:45.654Z,82.62
2016-03-16T06:06:45.626Z,82.52
2016-03-16T06:07:45.597Z,83.37
2016-03-16T06:08:45.568Z,83.28
2016-03-16T06:09:45.525Z,83.37
2016-03-16T06:10:45.480Z,83.37
2016-03-16T06:11:45.452Z,82.52
2016-03-16T06:12:45.439Z,82.52
2016-03-16T06:13:45.395Z,82.71
2016-03-16T06:14:45.367Z,82.52
2016-03-16T06:15:45.337Z,82.62
2016-03-16T06:16:45.294Z,82.62
2016-03-16T06:17:45.280Z,82.71
2016-03-16T06:18:45.220Z,83.09
2016-03-16T06:19:45.192Z,82.62
2016-03-16T06:20:45.163Z,82.52
2016-03-16T06:21:45.135Z,82.24
2016-03-16T06:22:44.950Z,82.05
2016-03-16T06:23:45.062Z,82.24
2016-03-16T06:24:45.050Z,82.24
2016-03-16T06:25:45.005Z,81.95
2016-03-16T06:26:44.977Z,82.14
2016-03-16T06:27:44.933Z,81.67
2016-03-16T06:28:44.905Z,81.76
2016-03-16T06:29:44.859Z,81.76
2016-03-16T06:30:44.831Z,81.86
2016-03-16T06:31:44.787Z,80.72
2016-03-16T06:32:44.774Z,82.05
2016-03-16T06:33:44.730Z,81.86
2016-03-16T06:34:44.701Z,81.86
2016-03-16T06:35:44.657Z,81.48
2016-03-16T06:36:44.628Z,81.67
2016-03-16T06:37:44.601Z,81.2
2016-03-16T06:38:44.556Z,80.82
2016-03-16T06:39:44.558Z,81.38
2016-03-16T06:40:44.498Z,81.1
2016-03-16T06:41:44.470Z,80.63
2016-03-16T06:42:44.425Z,80.82
2016-03-16T06:43:44.413Z,80.06
2016-03-16T06:44:44.369Z,80.34
2016-03-16T06:45:44.340Z,80.19
2016-03-16T06:46:44.296Z,80.48
2016-03-16T06:47:44.283Z,80.57
2016-03-16T06:48:44.223Z,80.38
2016-03-16T06:49:44.194Z,80
2016-03-16T06:50:44.166Z,80.48
2016-03-16T06:51:44.138Z,80.29
2016-03-16T06:52:44.094Z,80.19
2016-03-16T06:53:44.081Z,80.19
2016-03-16T06:54:44.036Z,80.1
2016-03-16T06:55:44.008Z,80.06
2016-03-16T06:56:43.979Z,80.38
2016-03-16T06:57:43.935Z,80.29
2016-03-16T06:58:43.906Z,80.53
2016-03-16T06:59:43.877Z,79.44
2016-03-16T07:00:43.849Z,80.1
2016-03-16T07:01:43.821Z,79.06
2016-03-16T07:02:43.777Z,79.53
2016-03-16T07:03:43.733Z,79.06
2016-03-16T07:04:43.719Z,80.38
2016-03-16T07:05:43.676Z,79.06
2016-03-16T07:06:43.663Z,79.44
2016-03-16T07:07:43.618Z,78.39
2016-03-16T07:08:43.590Z,78.77
2016-03-16T07:09:43.561Z,79.63
2016-03-16T07:10:43.501Z,79.34
2016-03-16T07:11:43.503Z,78.67
2016-03-16T07:12:43.444Z,79.15
2016-03-16T07:13:43.415Z,79.44
2016-03-16T07:14:43.386Z,78.77
2016-03-16T07:15:43.342Z,79.53
2016-03-16T07:16:43.314Z,79.53
2016-03-16T07:17:43.286Z,79.06
2016-03-16T07:18:43.273Z,78.77
2016-03-16T07:19:43.228Z,78.77
2016-03-16T07:20:43.200Z,79.44
2016-03-16T07:21:43.155Z,79.25
2016-03-16T07:22:43.127Z,79.53
2016-03-16T07:23:43.083Z,78.77
2016-03-16T07:24:43.070Z,78.77
2016-03-16T07:25:45.589Z,79.06
2016-03-16T07:26:45.451Z,79.15
2016-03-16T07:27:45.766Z,78.39
2016-03-16T07:28:42.925Z,78.67
2016-03-16T07:29:42.896Z,77.83
2016-03-16T07:30:42.852Z,78.11
2016-03-16T07:31:42.823Z,78.2
2016-03-16T07:32:42.794Z,79.25
2016-03-16T07:33:42.766Z,77.92
2016-03-16T07:34:42.721Z,78.11
2016-03-16T07:35:42.709Z,78.02
2016-03-16T07:36:43.790Z,77.73
2016-03-16T07:37:45.746Z,79.63
2016-03-16T07:38:45.327Z,79.72
2016-03-16T07:39:42.579Z,79.44
2016-03-16T07:40:42.535Z,78.43
2016-03-16T07:41:42.506Z,77.01
2016-03-16T07:42:42.462Z,77.11
2016-03-16T07:43:42.433Z,76.82
2016-03-16T07:44:42.405Z,76.44
2016-03-16T07:45:42.376Z,76.44
2016-03-16T07:46:42.331Z,77.39
2016-03-16T07:47:42.319Z,77.67
2016-03-16T07:48:42.275Z,76.44
2016-03-16T07:49:42.262Z,76.73
2016-03-16T07:50:42.218Z,76.92
2016-03-16T07:51:42.174Z,76.44
2016-03-16T07:52:42.161Z,76.44
2016-03-16T07:53:42.116Z,76.54
2016-03-16T07:54:42.088Z,77.2
2016-03-16T07:55:42.044Z,76.44
2016-03-16T07:56:42.031Z,76.92
2016-03-16T07:57:41.987Z,75.87
2016-03-16T07:58:41.959Z,75.21
2016-03-16T07:59:41.930Z,75.78
2016-03-16T08:00:41.902Z,75.59
2016-03-16T08:01:41.857Z,75.59
2016-03-16T08:02:41.813Z,75.31
2016-03-16T08:03:41.815Z,75.49
2016-03-16T08:04:41.755Z,74.73
2016-03-16T08:05:41.727Z,75.4
2016-03-16T08:06:41.711Z,75.59
2016-03-16T08:07:41.667Z,75.21
2016-03-16T08:08:41.638Z,73.97
2016-03-16T08:09:41.609Z,73.6
2016-03-16T08:10:41.564Z,73.97
2016-03-16T08:11:41.536Z,75.31
2016-03-16T08:12:41.492Z,74.64
2016-03-16T08:13:41.479Z,74.35
2016-03-16T08:14:41.435Z,74.54
2016-03-16T08:15:41.422Z,74.54
2016-03-16T08:16:41.363Z,73.6
2016-03-16T08:17:41.349Z,72.93
2016-03-16T08:18:41.305Z,73.6
2016-03-16T08:19:41.293Z,73.69
2016-03-16T08:20:41.249Z,74.26
2016-03-16T08:21:41.219Z,73.31
2016-03-16T08:22:41.221Z,73.22
2016-03-16T08:23:41.146Z,73.69
2016-03-16T08:24:41.134Z,73.31
2016-03-16T08:25:41.090Z,73.22
2016-03-16T08:26:41.062Z,71.8
2016-03-16T08:27:41.032Z,72.64
2016-03-16T08:28:40.985Z,72.02
2016-03-16T08:29:40.957Z,71.92
2016-03-16T08:30:40.929Z,71.64
2016-03-16T08:31:40.900Z,71.36
2016-03-16T08:32:40.871Z,70.78
2016-03-16T08:33:40.828Z,69.93
2016-03-16T08:34:40.798Z,68.13
2016-03-16T08:35:40.786Z,68.7
2016-03-16T08:36:40.742Z,68.98
2016-03-16T08:37:40.713Z,68.89
2016-03-16T08:38:40.669Z,68.79
2016-03-16T08:39:40.640Z,68.04
2016-03-16T08:40:40.611Z,68.13
2016-03-16T08:41:40.583Z,67.75
2016-03-16T08:42:40.554Z,68.13
2016-03-16T08:43:40.525Z,68.07
2016-03-16T08:44:40.497Z,68.07
2016-03-16T08:45:40.469Z,66.64
2016-03-16T08:46:40.424Z,67.12
2016-03-16T08:47:40.397Z,67.12
2016-03-16T08:48:40.368Z,66.17
2016-03-16T08:49:40.355Z,65.12
2016-03-16T08:50:40.310Z,65.69
2016-03-16T08:51:40.282Z,65.69
2016-03-16T08:52:40.254Z,65.79
2016-03-16T08:53:40.224Z,66.17
2016-03-16T08:54:40.180Z,65.5
2016-03-16T08:55:40.168Z,65.31
2016-03-16T08:56:40.124Z,64.56
2016-03-16T08:57:40.110Z,64.65
2016-03-16T08:58:40.082Z,65.03
2016-03-16T08:59:40.038Z,64.94
2016-03-16T09:00:40.009Z,65.79
2016-03-16T09:01:39.981Z,64.97
2016-03-16T09:02:39.952Z,64.02
2016-03-16T09:03:39.908Z,63.83
2016-03-16T09:04:39.895Z,63.45
2016-03-16T09:05:39.850Z,63.17
2016-03-16T09:06:39.843Z,63.7
2016-03-16T09:07:39.798Z,64.21
2016-03-16T09:08:39.770Z,64.46
2016-03-16T09:09:39.758Z,65.79
2016-03-16T09:10:39.713Z,64.94
2016-03-16T09:11:39.684Z,65.5
2016-03-16T09:12:39.640Z,65.03
2016-03-16T09:13:39.627Z,64.84
2016-03-16T09:14:39.583Z,63.79
2016-03-16T09:15:39.554Z,63.32
2016-03-16T09:16:39.526Z,63.13
2016-03-16T09:17:39.497Z,62.85
2016-03-16T09:18:39.484Z,63.42
2016-03-16T09:19:39.440Z,64.27
2016-03-16T09:20:39.429Z,64.46
2016-03-16T09:21:39.370Z,63.42
2016-03-16T09:22:39.357Z,62.94
2016-03-16T09:23:39.329Z,64.21
2016-03-16T09:24:39.301Z,63.98
2016-03-16T09:25:39.336Z,63.54
2016-03-16T09:26:39.236Z,63.45
2016-03-16T09:27:39.216Z,64.56
2016-03-16T09:28:39.143Z,63.7
2016-03-16T09:29:39.220Z,63.6
2016-03-16T09:30:40.951Z,63.6
2016-03-16T09:31:38.996Z,64.08
2016-03-16T09:32:38.962Z,63.98
2016-03-16T09:33:38.929Z,64.17
2016-03-16T09:34:38.896Z,64.46
2016-03-16T09:35:38.864Z,64.27
2016-03-16T09:36:38.833Z,63.79
2016-03-16T09:37:38.802Z,63.79
2016-03-16T09:38:38.787Z,63.13
2016-03-16T09:39:38.741Z,63.13
2016-03-16T09:40:38.710Z,63.7
2016-03-16T09:41:38.666Z,62.75
2016-03-16T09:42:38.653Z,62.18
2016-03-16T09:43:38.608Z,60.95
2016-03-16T09:44:38.578Z,60.57
2016-03-16T09:45:38.565Z,61.23
2016-03-16T09:46:38.521Z,59.71
2016-03-16T09:47:38.508Z,60
2016-03-16T09:48:38.464Z,60.28
2016-03-16T09:49:38.451Z,60.66
2016-03-16T09:50:38.391Z,59.52
2016-03-16T09:51:38.378Z,58.95
2016-03-16T09:52:38.333Z,58.41
2016-03-16T09:53:38.320Z,57.56
2016-03-16T09:54:38.277Z,57.75
2016-03-16T09:55:38.263Z,56.8
2016-03-16T09:56:38.220Z,56.04
2016-03-16T09:57:38.190Z,54.64
2016-03-16T09:58:38.163Z,53.78
2016-03-16T09:59:38.133Z,53.12
2016-03-16T10:00:38.105Z,52.84
2016-03-16T10:01:38.076Z,53.78
2016-03-16T10:02:38.064Z,53.5
2016-03-16T10:03:38.004Z,53.66
2016-03-16T10:04:38.006Z,54.8
2016-03-16T10:05:37.946Z,55.09
2016-03-16T10:06:37.918Z,55.18
2016-03-16T10:07:37.889Z,56.32
2016-03-16T10:08:37.893Z,55.76
2016-03-16T10:09:37.832Z,55.28
2016-03-16T10:10:37.803Z,54.61
2016-03-16T10:11:37.776Z,54.14
2016-03-16T10:12:37.746Z,54.71
2016-03-16T10:13:37.734Z,54.71
2016-03-16T10:14:37.689Z,54.68
2016-03-16T10:15:37.662Z,54.52
2016-03-16T10:16:37.632Z,54.61
2016-03-16T10:17:37.589Z,53.95
2016-03-16T10:18:37.576Z,54.33
2016-03-16T10:19:37.547Z,54.8
2016-03-16T10:20:37.518Z,53.85
2016-03-16T10:21:37.489Z,54.43
2016-03-16T10:22:37.446Z,54.83
2016-03-16T10:23:37.433Z,54.26
2016-03-16T10:24:37.389Z,54.43
2016-03-16T10:25:37.375Z,53.78
2016-03-16T10:26:37.347Z,53.76
2016-03-16T10:27:37.303Z,54.17
2016-03-16T10:28:37.274Z,54.07
2016-03-16T10:29:37.246Z,52.81
2016-03-16T10:30:37.217Z,52.93
2016-03-16T10:31:37.188Z,52.84
2016-03-16T10:32:37.144Z,52.45
2016-03-16T10:33:37.147Z,51.98
2016-03-16T10:34:37.102Z,51.98
2016-03-16T10:35:37.074Z,52.24
2016-03-16T10:36:37.046Z,53.03
2016-03-16T10:37:37.018Z,53.03
2016-03-16T10:38:36.973Z,54.26
2016-03-16T10:39:36.960Z,52.84
2016-03-16T10:40:36.915Z,51.41
2016-03-16T10:41:36.887Z,50.46
2016-03-16T10:42:36.874Z,50.37
2016-03-16T10:43:36.829Z,50.37
2016-03-16T10:44:36.817Z,50.62
2016-03-16T10:45:36.773Z,52.33
2016-03-16T10:46:36.759Z,52.24
2016-03-16T10:47:36.715Z,51.2
2016-03-16T10:48:36.703Z,51.39
2016-03-16T10:49:36.659Z,51.95
2016-03-16T10:50:36.645Z,51.67
2016-03-16T10:51:36.602Z,51.57
2016-03-16T10:52:36.573Z,51.76
2016-03-16T10:53:36.545Z,51.48
2016-03-16T10:54:36.516Z,51.39
2016-03-16T10:55:36.487Z,51.86
2016-03-16T10:56:36.459Z,51.39
2016-03-16T10:57:36.431Z,50.91
2016-03-16T10:58:36.402Z,51.57
2016-03-16T10:59:36.373Z,52.81
2016-03-16T11:00:36.329Z,54.9
2016-03-16T11:01:36.317Z,56.04
2016-03-16T11:02:36.272Z,57.37
2016-03-16T11:03:36.259Z,58.03
2016-03-16T11:04:36.216Z,58.89
2016-03-16T11:05:36.186Z,59.55
2016-03-16T11:06:36.158Z,58.89
2016-03-16T11:07:36.129Z,59.55
2016-03-16T11:08:36.116Z,59.52
2016-03-16T11:09:36.072Z,59.91
2016-03-16T11:10:36.044Z,59.71
2016-03-16T11:11:36.015Z,59.81
2016-03-16T11:12:35.987Z,60.1
2016-03-16T11:13:35.958Z,59.52
2016-03-16T11:14:35.913Z,58.95
2016-03-16T11:15:35.885Z,58.58
2016-03-16T11:16:35.857Z,58.7
2016-03-16T11:17:35.829Z,57.37
2016-03-16T11:18:35.815Z,57.94
2016-03-16T11:19:35.771Z,56.61
2016-03-16T11:20:35.743Z,54.05
2016-03-16T11:21:35.714Z,53
2016-03-16T11:22:35.685Z,51.67
2016-03-16T11:23:35.656Z,50.72
2016-03-16T11:24:35.629Z,50.74
2016-03-16T11:25:35.615Z,50.05
2016-03-16T11:26:35.570Z,49.68
2016-03-16T11:27:35.542Z,49.79
2016-03-16T11:28:35.498Z,50.46
2016-03-16T11:29:35.470Z,50.74
2016-03-16T11:30:35.442Z,51.31
2016-03-16T11:31:35.429Z,52.36
2016-03-16T11:32:35.400Z,52.26
2016-03-16T11:33:35.356Z,52.36
2016-03-16T11:34:35.327Z,52.72
2016-03-16T11:35:35.298Z,52.26
2016-03-16T11:36:35.270Z,52.24
2016-03-16T11:37:35.241Z,52.45
2016-03-16T11:38:35.213Z,51.48
2016-03-16T11:39:35.184Z,52.08
2016-03-16T11:40:35.172Z,51.98
2016-03-16T11:41:35.127Z,51.31
2016-03-16T11:42:35.098Z,51.22
2016-03-16T11:43:35.086Z,51.22
2016-03-16T11:44:35.041Z,51.6
2016-03-16T11:45:35.013Z,51.89
2016-03-16T11:46:34.999Z,51.95
2016-03-16T11:47:34.956Z,53
2016-03-16T11:48:34.927Z,52.62
2016-03-16T11:49:34.883Z,52.91
2016-03-16T11:50:34.870Z,53.47
2016-03-16T11:51:34.826Z,53.57
2016-03-16T11:52:34.798Z,54.61
2016-03-16T11:53:34.784Z,54.9
2016-03-16T11:54:34.756Z,55.28
2016-03-16T11:55:34.727Z,55.02
2016-03-16T11:56:34.684Z,54.74
2016-03-16T11:57:34.654Z,55.02
2016-03-16T11:58:34.642Z,54.93
2016-03-16T11:59:34.597Z,55.02
2016-03-16T12:00:34.584Z,55.21
2016-03-16T12:01:34.540Z,54.93
2016-03-16T12:02:34.511Z,54.17
2016-03-16T12:03:34.483Z,54.17
2016-03-16T12:04:34.455Z,53.69
2016-03-16T12:05:34.442Z,54.07
2016-03-16T12:06:34.397Z,53.19
2016-03-16T12:07:34.369Z,53.31
2016-03-16T12:08:34.341Z,53.78
2016-03-16T12:09:34.311Z,54.07
2016-03-16T12:10:34.283Z,53.69
2016-03-16T12:11:34.255Z,53.31
2016-03-16T12:12:34.241Z,52.93
2016-03-16T12:13:34.197Z,53.31
2016-03-16T12:14:34.169Z,53.12
2016-03-16T12:15:34.140Z,53.22
2016-03-16T12:16:34.112Z,53.69
2016-03-16T12:17:34.099Z,52.55
2016-03-16T12:18:34.055Z,52.36
2016-03-16T12:19:34.026Z,51.31
2016-03-16T12:20:33.998Z,50.46
2016-03-16T12:21:33.954Z,50.65
2016-03-16T12:22:33.925Z,52.08
2016-03-16T12:23:33.896Z,51.12
2016-03-16T12:24:33.883Z,52.17
2016-03-16T12:25:33.854Z,51.22
2016-03-16T12:26:33.826Z,51.79
2016-03-16T12:27:33.798Z,51.6
2016-03-16T12:28:33.753Z,51.03
2016-03-16T12:29:33.740Z,50.87
2016-03-16T12:30:33.712Z,50.65
2016-03-16T12:31:33.668Z,50.37
2016-03-16T12:32:33.639Z,49.89
2016-03-16T12:33:33.611Z,49.32
2016-03-16T12:34:33.583Z,49.89
2016-03-16T12:35:33.585Z,49.7
2016-03-16T12:36:33.541Z,49.13
2016-03-16T12:37:33.496Z,48.75
2016-03-16T12:38:33.469Z,50.27
2016-03-16T12:39:33.455Z,51.25
2016-03-16T12:40:33.427Z,52.08
2016-03-16T12:41:33.397Z,52.26
2016-03-16T12:42:33.369Z,52.74
2016-03-16T12:43:33.325Z,52.64
2016-03-16T12:44:33.297Z,52.64
2016-03-16T12:45:33.268Z,53.03
2016-03-16T12:46:33.254Z,52.64
2016-03-16T12:47:33.227Z,51.7
2016-03-16T12:48:33.182Z,51.25
2016-03-16T12:49:33.169Z,50.87
2016-03-16T12:50:33.125Z,51.15
2016-03-16T12:51:33.113Z,50.68
2016-03-16T12:52:33.099Z,50.96
2016-03-16T12:53:33.055Z,50.68
2016-03-16T12:54:33.026Z,50.1
2016-03-16T12:55:32.998Z,50.39